createdAt,value
2019-01-16T00:01:14.282Z,26.73
2019-01-16T00:06:36.511Z,25.03
2019-01-16T00:12:05.538Z,29.67
2019-01-16T00:17:31.558Z,25.60
2019-01-16T00:22:52.490Z,27.63
2019-01-16T00:28:21.495Z,25.63
2019-01-16T00:33:43.605Z,26.83
2019-01-16T00:39:09.833Z,24.70
2019-01-16T00:44:37.575Z,24.73
2019-01-16T00:49:59.322Z,21.93
2019-01-16T00:55:21.577Z,21.93
2019-01-16T01:00:44.846Z,20.37
2019-01-16T01:06:14.204Z,25.03
2019-01-16T01:11:37.434Z,21.77
2019-01-16T01:16:53.054Z,20.77
2019-01-16T01:22:19.279Z,23.23
2019-01-16T01:27:42.496Z,21.67
2019-01-16T01:33:04.464Z,24.02
2019-01-16T01:38:26.559Z,24.83
2019-01-16T01:43:58.919Z,22.90
2019-01-16T01:49:37.252Z,23.70
2019-01-16T01:54:57.120Z,24.70
2019-01-16T02:00:12.727Z,23.47
2019-01-16T02:05:39.108Z,21.93
2019-01-16T02:11:02.340Z,24.80
2019-01-16T02:16:23.072Z,21.90
2019-01-16T02:21:46.287Z,21.67
2019-01-16T02:27:12.247Z,20.80
2019-01-16T02:32:34.024Z,21.20
2019-01-16T02:37:56.144Z,19.90
2019-01-16T02:43:22.371Z,22.97
2019-01-16T02:48:44.348Z,20.10
2019-01-16T02:54:06.219Z,19.07
2019-01-16T02:59:47.859Z,21.60
2019-01-16T03:05:16.969Z,21.70
2019-01-16T03:10:35.662Z,23.20
2019-01-16T03:15:52.056Z,24.30
2019-01-16T03:21:21.391Z,20.77
2019-01-16T03:26:50.427Z,20.50
2019-01-16T03:32:23.030Z,21.77
2019-01-16T03:37:48.536Z,21.87
2019-01-16T03:43:09.776Z,21.03
2019-01-16T03:48:51.197Z,20.57
2019-01-16T03:54:17.562Z,18.83
2019-01-16T03:59:42.252Z,20.13
2019-01-16T04:05:04.049Z,22.50
2019-01-16T04:10:28.236Z,20.60
2019-01-16T04:15:57.427Z,22.07
2019-01-16T04:21:23.463Z,23.40
2019-01-16T04:26:45.472Z,19.75
2019-01-16T04:32:08.696Z,20.93
2019-01-16T04:37:34.922Z,19.37
2019-01-16T04:42:56.973Z,18.87
2019-01-16T04:48:35.598Z,17.00
2019-01-16T04:53:57.437Z,17.80
2019-01-16T04:59:16.295Z,16.97
2019-01-16T05:04:34.728Z,16.50
2019-01-16T05:10:00.874Z,16.13
2019-01-16T05:15:17.411Z,16.17
2019-01-16T05:20:42.236Z,16.93
2019-01-16T05:26:09.472Z,14.70
2019-01-16T05:31:44.823Z,15.30
2019-01-16T05:37:13.864Z,15.00
2019-01-16T05:42:43.171Z,16.12
2019-01-16T05:48:05.149Z,16.48
2019-01-16T05:53:43.866Z,16.43
2019-01-16T05:59:05.699Z,16.85
2019-01-16T06:04:28.907Z,16.33
2019-01-16T06:09:58.420Z,15.60
2019-01-16T06:15:27.863Z,16.40
2019-01-16T06:20:42.140Z,16.00
2019-01-16T06:26:08.158Z,15.95
2019-01-16T06:31:24.791Z,15.60
2019-01-16T06:36:46.440Z,15.60
2019-01-16T06:42:00.623Z,15.40
2019-01-16T06:47:16.926Z,15.07
2019-01-16T06:52:40.131Z,15.27
2019-01-16T06:58:02.211Z,13.53
2019-01-16T07:03:33.624Z,14.43
2019-01-16T07:08:48.535Z,14.50
2019-01-16T07:14:21.103Z,14.60
2019-01-16T07:19:54.120Z,15.83
2019-01-16T07:25:29.360Z,14.87
2019-01-16T07:30:55.831Z,14.83
2019-01-16T07:36:29.353Z,16.03
2019-01-16T07:41:51.265Z,14.63
2019-01-16T07:47:13.509Z,12.57
2019-01-16T07:52:39.527Z,12.45
2019-01-16T07:57:57.352Z,11.57
2019-01-16T08:03:12.222Z,13.50
2019-01-16T08:08:35.447Z,10.58
2019-01-16T08:13:57.604Z,11.40
2019-01-16T08:19:32.807Z,11.20
2019-01-16T08:24:57.322Z,9.73
2019-01-16T08:30:29.399Z,9.80
2019-01-16T08:35:51.251Z,12.15
2019-01-16T08:41:12.300Z,10.20
2019-01-16T08:46:38.275Z,10.23
2019-01-16T08:52:01.489Z,8.67
2019-01-16T08:57:23.643Z,9.63
2019-01-16T09:02:53.160Z,8.33
2019-01-16T09:08:28.755Z,7.65
2019-01-16T09:13:44.165Z,7.70
2019-01-16T09:18:56.900Z,7.93
2019-01-16T09:24:18.693Z,8.00
2019-01-16T09:29:40.571Z,8.43
2019-01-16T09:35:01.625Z,7.73
2019-01-16T09:40:24.884Z,8.88
2019-01-16T09:46:00.260Z,7.65
2019-01-16T09:51:27.674Z,8.23
2019-01-16T09:56:49.808Z,7.70
2019-01-16T10:02:11.915Z,7.87
2019-01-16T10:07:33.232Z,8.43
2019-01-16T10:12:59.577Z,8.93
2019-01-16T10:18:24.973Z,8.07
2019-01-16T10:24:06.735Z,7.17
2019-01-16T10:29:32.756Z,7.00
2019-01-16T10:34:55.067Z,7.97
2019-01-16T10:40:21.073Z,6.75
2019-01-16T10:45:56.608Z,6.97
2019-01-16T10:51:25.086Z,7.58
2019-01-16T10:56:40.207Z,7.10
2019-01-16T11:02:02.327Z,6.67
2019-01-16T11:07:31.702Z,6.47
2019-01-16T11:12:54.952Z,6.53
2019-01-16T11:18:16.875Z,6.57
2019-01-16T11:23:39.335Z,5.50
2019-01-16T11:29:01.627Z,7.47
2019-01-16T11:34:27.761Z,7.13
2019-01-16T11:39:54.045Z,5.65
2019-01-16T11:45:15.816Z,5.62
2019-01-16T11:50:48.355Z,4.20
2019-01-16T11:56:12.582Z,7.08
2019-01-16T12:01:48.118Z,4.43
2019-01-16T12:07:17.271Z,6.20
2019-01-16T12:12:48.527Z,7.30
2019-01-16T12:18:08.016Z,4.60
2019-01-16T12:23:24.430Z,7.00
2019-01-16T12:28:46.383Z,6.63
2019-01-16T12:34:24.927Z,6.47
2019-01-16T12:39:49.431Z,5.60
2019-01-16T12:45:18.500Z,5.13
2019-01-16T12:50:57.055Z,4.78
2019-01-16T12:56:20.287Z,4.50
2019-01-16T13:01:49.333Z,5.40
2019-01-16T13:07:15.415Z,7.62
2019-01-16T13:12:32.153Z,4.40
2019-01-16T13:17:58.172Z,5.47
2019-01-16T13:23:20.248Z,6.25
2019-01-16T13:28:42.419Z,6.08
2019-01-16T13:34:05.625Z,5.60
2019-01-16T13:39:31.968Z,5.73
2019-01-16T13:45:07.431Z,6.00
2019-01-16T13:50:30.152Z,8.13
2019-01-16T13:56:03.592Z,5.83
2019-01-16T14:01:26.835Z,6.10
2019-01-16T14:07:02.434Z,6.27
2019-01-16T14:12:44.471Z,6.40
2019-01-16T14:18:13.629Z,6.87
2019-01-16T14:23:44.831Z,7.03
2019-01-16T14:29:14.114Z,8.90
2019-01-16T14:34:37.345Z,6.67
2019-01-16T14:40:06.651Z,7.63
2019-01-16T14:45:36.304Z,7.70
2019-01-16T14:50:51.816Z,9.27
2019-01-16T14:56:15.047Z,7.47
2019-01-16T15:01:44.359Z,8.57
2019-01-16T15:07:16.478Z,6.90
2019-01-16T15:12:38.844Z,9.00
2019-01-16T15:18:01.205Z,12.73
2019-01-16T15:23:23.355Z,9.97
2019-01-16T15:28:54.938Z,10.27
2019-01-16T15:34:08.987Z,9.50
2019-01-16T15:39:34.839Z,9.67
2019-01-16T15:44:56.767Z,8.63
2019-01-16T15:50:18.891Z,10.07
2019-01-16T15:55:48.169Z,9.67
2019-01-16T16:01:20.950Z,8.73
2019-01-16T16:06:44.184Z,8.23
2019-01-16T16:12:04.675Z,9.10
2019-01-16T16:17:25.476Z,9.27
2019-01-16T16:22:46.112Z,7.53
2019-01-16T16:28:27.494Z,8.33
2019-01-16T16:33:53.566Z,10.80
2019-01-16T16:39:29.233Z,9.03
2019-01-16T16:44:55.491Z,8.70
2019-01-16T16:50:16.205Z,13.00
2019-01-16T16:55:45.788Z,9.17
2019-01-16T17:01:18.653Z,8.03
2019-01-16T17:06:51.154Z,8.37
2019-01-16T17:12:07.055Z,9.23
2019-01-16T17:17:39.571Z,12.07
2019-01-16T17:23:01.651Z,9.93
2019-01-16T17:28:29.975Z,9.43
2019-01-16T17:34:11.756Z,8.57
2019-01-16T17:39:37.641Z,9.83
2019-01-16T17:45:00.910Z,9.17
2019-01-16T17:50:25.131Z,7.40
2019-01-16T17:55:51.278Z,6.00
2019-01-16T18:01:05.445Z,8.83
2019-01-16T18:06:27.670Z,9.17
2019-01-16T18:11:54.043Z,8.83
2019-01-16T18:17:21.039Z,10.37
2019-01-16T18:22:45.112Z,9.27
2019-01-16T18:28:03.408Z,10.67
2019-01-16T18:33:32.676Z,8.90
2019-01-16T18:38:58.703Z,7.47
2019-01-16T18:44:15.896Z,10.73
2019-01-16T18:49:44.911Z,10.37
2019-01-16T18:55:06.818Z,10.33
2019-01-16T19:00:33.455Z,9.53
2019-01-16T19:06:05.576Z,10.43
2019-01-16T19:11:28.858Z,8.73
2019-01-16T19:16:50.983Z,9.17
2019-01-16T19:22:29.616Z,8.67
2019-01-16T19:27:52.948Z,7.53
2019-01-16T19:33:14.276Z,7.73
2019-01-16T19:38:37.516Z,11.10
2019-01-16T19:44:00.748Z,10.30
2019-01-16T19:49:35.984Z,10.30
2019-01-16T19:54:59.281Z,9.30
2019-01-16T20:00:18.759Z,9.00
2019-01-16T20:05:42.077Z,9.73
2019-01-16T20:11:04.628Z,7.50
2019-01-16T20:16:27.199Z,7.73
2019-01-16T20:21:44.623Z,6.30
2019-01-16T20:27:13.389Z,9.17
2019-01-16T20:32:55.440Z,9.60
2019-01-16T20:38:24.713Z,11.23
2019-01-16T20:43:47.960Z,8.83
2019-01-16T20:49:13.998Z,9.03
2019-01-16T20:54:32.048Z,8.43
2019-01-16T20:59:55.295Z,8.33
2019-01-16T21:05:17.288Z,10.50
2019-01-16T21:10:55.830Z,10.70
2019-01-16T21:16:06.108Z,9.13
2019-01-16T21:21:28.203Z,8.40
2019-01-16T21:27:09.809Z,7.93
2019-01-16T21:32:31.702Z,6.67
2019-01-16T21:37:52.647Z,7.30
2019-01-16T21:43:31.431Z,9.37
2019-01-16T21:48:57.597Z,8.53
2019-01-16T21:54:31.880Z,11.00
2019-01-16T21:59:44.316Z,9.37
2019-01-16T22:05:06.575Z,9.33
2019-01-16T22:10:45.912Z,10.67
2019-01-16T22:16:03.062Z,10.20
2019-01-16T22:21:17.834Z,9.57
2019-01-16T22:26:43.911Z,10.57
2019-01-16T22:31:54.585Z,10.37
2019-01-16T22:37:16.604Z,10.63
2019-01-16T22:42:42.928Z,9.17
2019-01-16T22:48:05.057Z,13.07
2019-01-16T22:53:28.278Z,11.30
2019-01-16T22:58:54.544Z,8.50
2019-01-16T23:04:17.771Z,11.53
2019-01-16T23:09:30.153Z,10.03
2019-01-16T23:14:48.031Z,10.70
2019-01-16T23:20:26.722Z,10.30
2019-01-16T23:25:46.448Z,11.13
2019-01-16T23:31:18.551Z,12.17
2019-01-16T23:36:39.976Z,14.03
2019-01-16T23:42:09.251Z,12.13
2019-01-16T23:47:32.462Z,14.00
2019-01-16T23:53:13.906Z,12.53
2019-01-16T23:58:43.295Z,13.27
